sensor_id;sensor_type;location;lat;lon;timestamp;P1;durP1;ratioP1;P2;durP2;ratioP2
55417;SDS011;41287;47.554;7.844;2023-05-23T00:02:08;5.45;;;3.60;;
55417;SDS011;41287;47.554;7.844;2023-05-23T00:04:33;5.20;;;3.90;;
55417;SDS011;41287;47.554;7.844;2023-05-23T00:07:00;4.78;;;3.28;;
55417;SDS011;41287;47.554;7.844;2023-05-23T00:09:26;4.85;;;3.40;;
55417;SDS011;41287;47.554;7.844;2023-05-23T00:11:52;4.70;;;3.58;;
55417;SDS011;41287;47.554;7.844;2023-05-23T00:14:17;4.95;;;3.50;;
55417;SDS011;41287;47.554;7.844;2023-05-23T00:16:43;6.57;;;3.38;;
55417;SDS011;41287;47.554;7.844;2023-05-23T00:19:11;7.07;;;3.70;;
55417;SDS011;41287;47.554;7.844;2023-05-23T00:21:38;4.35;;;3.40;;
55417;SDS011;41287;47.554;7.844;2023-05-23T00:24:05;4.35;;;3.30;;
55417;SDS011;41287;47.554;7.844;2023-05-23T00:26:33;4.50;;;3.53;;
55417;SDS011;41287;47.554;7.844;2023-05-23T00:28:59;5.25;;;3.65;;
55417;SDS011;41287;47.554;7.844;2023-05-23T00:31:24;4.53;;;3.53;;
55417;SDS011;41287;47.554;7.844;2023-05-23T00:33:50;4.82;;;3.40;;
55417;SDS011;41287;47.554;7.844;2023-05-23T00:36:15;6.57;;;4.10;;
55417;SDS011;41287;47.554;7.844;2023-05-23T00:38:41;4.50;;;3.53;;
55417;SDS011;41287;47.554;7.844;2023-05-23T00:41:07;4.57;;;3.47;;
55417;SDS011;41287;47.554;7.844;2023-05-23T00:43:32;5.28;;;3.88;;
55417;SDS011;41287;47.554;7.844;2023-05-23T00:45:57;4.40;;;3.30;;
55417;SDS011;41287;47.554;7.844;2023-05-23T00:48:24;4.40;;;3.47;;
55417;SDS011;41287;47.554;7.844;2023-05-23T00:50:50;4.15;;;3.22;;
55417;SDS011;41287;47.554;7.844;2023-05-23T00:53:15;4.35;;;3.20;;
55417;SDS011;41287;47.554;7.844;2023-05-23T00:55:41;4.32;;;3.30;;
55417;SDS011;41287;47.554;7.844;2023-05-23T00:58:10;5.05;;;3.38;;
55417;SDS011;41287;47.554;7.844;2023-05-23T01:00:37;5.45;;;3.90;;
55417;SDS011;41287;47.554;7.844;2023-05-23T01:03:03;4.00;;;3.08;;
55417;SDS011;41287;47.554;7.844;2023-05-23T01:05:29;5.05;;;3.60;;
55417;SDS011;41287;47.554;7.844;2023-05-23T01:07:54;4.75;;;3.53;;
55417;SDS011;41287;47.554;7.844;2023-05-23T01:10:23;4.15;;;3.10;;
55417;SDS011;41287;47.554;7.844;2023-05-23T01:12:55;4.57;;;3.53;;
55417;SDS011;41287;47.554;7.844;2023-05-23T01:15:32;4.78;;;3.20;;
55417;SDS011;41287;47.554;7.844;2023-05-23T01:18:09;4.50;;;3.35;;
55417;SDS011;41287;47.554;7.844;2023-05-23T01:20:45;4.30;;;3.30;;
55417;SDS011;41287;47.554;7.844;2023-05-23T01:29:28;4.43;;;3.50;;
55417;SDS011;41287;47.554;7.844;2023-05-23T01:31:58;4.00;;;3.20;;
55417;SDS011;41287;47.554;7.844;2023-05-23T01:34:25;4.25;;;3.50;;
55417;SDS011;41287;47.554;7.844;2023-05-23T01:36:53;4.35;;;3.38;;
55417;SDS011;41287;47.554;7.844;2023-05-23T01:39:20;5.10;;;3.63;;
55417;SDS011;41287;47.554;7.844;2023-05-23T01:41:46;5.20;;;3.30;;
55417;SDS011;41287;47.554;7.844;2023-05-23T01:44:14;4.20;;;3.33;;
55417;SDS011;41287;47.554;7.844;2023-05-23T01:46:40;4.25;;;3.30;;
55417;SDS011;41287;47.554;7.844;2023-05-23T01:49:08;4.75;;;3.38;;
55417;SDS011;41287;47.554;7.844;2023-05-23T01:51:36;5.38;;;3.10;;
55417;SDS011;41287;47.554;7.844;2023-05-23T01:54:02;5.47;;;3.22;;
55417;SDS011;41287;47.554;7.844;2023-05-23T01:56:28;4.28;;;3.17;;
55417;SDS011;41287;47.554;7.844;2023-05-23T01:58:54;4.88;;;3.45;;
55417;SDS011;41287;47.554;7.844;2023-05-23T02:01:19;4.13;;;3.30;;
55417;SDS011;41287;47.554;7.844;2023-05-23T02:03:45;4.35;;;3.15;;
55417;SDS011;41287;47.554;7.844;2023-05-23T02:06:10;4.43;;;3.30;;
55417;SDS011;41287;47.554;7.844;2023-05-23T02:08:36;4.07;;;3.33;;
55417;SDS011;41287;47.554;7.844;2023-05-23T02:11:01;4.13;;;3.10;;
55417;SDS011;41287;47.554;7.844;2023-05-23T02:13:27;4.75;;;3.55;;
55417;SDS011;41287;47.554;7.844;2023-05-23T02:15:52;4.38;;;3.28;;
55417;SDS011;41287;47.554;7.844;2023-05-23T02:18:22;4.95;;;3.30;;
55417;SDS011;41287;47.554;7.844;2023-05-23T02:20:50;4.88;;;3.58;;
55417;SDS011;41287;47.554;7.844;2023-05-23T02:23:15;4.72;;;3.33;;
55417;SDS011;41287;47.554;7.844;2023-05-23T02:25:40;3.78;;;2.97;;
55417;SDS011;41287;47.554;7.844;2023-05-23T02:28:06;4.60;;;3.40;;
55417;SDS011;41287;47.554;7.844;2023-05-23T02:30:35;5.53;;;3.83;;
55417;SDS011;41287;47.554;7.844;2023-05-23T02:33:03;4.05;;;3.13;;
55417;SDS011;41287;47.554;7.844;2023-05-23T02:35:30;4.43;;;3.40;;
55417;SDS011;41287;47.554;7.844;2023-05-23T02:37:55;6.00;;;3.80;;
55417;SDS011;41287;47.554;7.844;2023-05-23T02:40:21;4.45;;;3.20;;
55417;SDS011;41287;47.554;7.844;2023-05-23T02:42:46;5.03;;;3.42;;
55417;SDS011;41287;47.554;7.844;2023-05-23T02:45:12;4.93;;;3.75;;
55417;SDS011;41287;47.554;7.844;2023-05-23T02:47:37;5.13;;;3.33;;
55417;SDS011;41287;47.554;7.844;2023-05-23T02:50:02;5.18;;;3.72;;
55417;SDS011;41287;47.554;7.844;2023-05-23T02:52:28;4.80;;;3.20;;
55417;SDS011;41287;47.554;7.844;2023-05-23T02:54:54;4.13;;;3.33;;
55417;SDS011;41287;47.554;7.844;2023-05-23T02:57:19;4.05;;;3.13;;
55417;SDS011;41287;47.554;7.844;2023-05-23T02:59:45;3.53;;;2.92;;
55417;SDS011;41287;47.554;7.844;2023-05-23T03:02:10;3.40;;;3.03;;
55417;SDS011;41287;47.554;7.844;2023-05-23T03:04:40;3.92;;;3.10;;
55417;SDS011;41287;47.554;7.844;2023-05-23T03:07:05;4.20;;;3.30;;
55417;SDS011;41287;47.554;7.844;2023-05-23T03:09:31;4.75;;;3.50;;
55417;SDS011;41287;47.554;7.844;2023-05-23T03:11:56;5.55;;;3.47;;
55417;SDS011;41287;47.554;7.844;2023-05-23T03:14:23;4.60;;;3.42;;
55417;SDS011;41287;47.554;7.844;2023-05-23T03:16:48;3.95;;;2.97;;
55417;SDS011;41287;47.554;7.844;2023-05-23T03:19:14;5.07;;;2.95;;
55417;SDS011;41287;47.554;7.844;2023-05-23T03:21:39;5.20;;;3.50;;
55417;SDS011;41287;47.554;7.844;2023-05-23T03:24:05;4.20;;;3.08;;
55417;SDS011;41287;47.554;7.844;2023-05-23T03:26:30;5.75;;;3.45;;
55417;SDS011;41287;47.554;7.844;2023-05-23T03:28:56;4.55;;;3.38;;
55417;SDS011;41287;47.554;7.844;2023-05-23T03:31:21;4.03;;;3.22;;
55417;SDS011;41287;47.554;7.844;2023-05-23T03:33:47;4.22;;;3.30;;
55417;SDS011;41287;47.554;7.844;2023-05-23T03:36:14;4.38;;;3.25;;
55417;SDS011;41287;47.554;7.844;2023-05-23T03:38:40;4.03;;;2.90;;
55417;SDS011;41287;47.554;7.844;2023-05-23T03:41:06;4.15;;;3.08;;
55417;SDS011;41287;47.554;7.844;2023-05-23T03:43:31;3.92;;;2.88;;
55417;SDS011;41287;47.554;7.844;2023-05-23T03:45:57;5.97;;;3.25;;
55417;SDS011;41287;47.554;7.844;2023-05-23T03:48:22;5.38;;;3.55;;
55417;SDS011;41287;47.554;7.844;2023-05-23T03:50:48;3.30;;;2.80;;
55417;SDS011;41287;47.554;7.844;2023-05-23T03:53:13;4.53;;;3.28;;
55417;SDS011;41287;47.554;7.844;2023-05-23T03:55:38;5.28;;;3.20;;
55417;SDS011;41287;47.554;7.844;2023-05-23T03:58:04;3.60;;;2.88;;
55417;SDS011;41287;47.554;7.844;2023-05-23T04:00:30;5.15;;;3.78;;
55417;SDS011;41287;47.554;7.844;2023-05-23T04:02:55;3.97;;;3.30;;
55417;SDS011;41287;47.554;7.844;2023-05-23T04:05:21;4.22;;;3.00;;
55417;SDS011;41287;47.554;7.844;2023-05-23T04:07:46;4.28;;;3.00;;
55417;SDS011;41287;47.554;7.844;2023-05-23T04:10:12;4.55;;;3.30;;
55417;SDS011;41287;47.554;7.844;2023-05-23T04:12:37;3.95;;;3.13;;
55417;SDS011;41287;47.554;7.844;2023-05-23T04:15:05;4.63;;;3.55;;
55417;SDS011;41287;47.554;7.844;2023-05-23T04:17:31;4.03;;;3.30;;
55417;SDS011;41287;47.554;7.844;2023-05-23T04:19:59;4.88;;;3.28;;
55417;SDS011;41287;47.554;7.844;2023-05-23T04:22:24;3.80;;;3.17;;
55417;SDS011;41287;47.554;7.844;2023-05-23T04:24:50;4.63;;;3.13;;
55417;SDS011;41287;47.554;7.844;2023-05-23T04:27:15;4.18;;;3.33;;
55417;SDS011;41287;47.554;7.844;2023-05-23T04:29:40;4.15;;;3.15;;
55417;SDS011;41287;47.554;7.844;2023-05-23T04:32:10;4.55;;;3.22;;
55417;SDS011;41287;47.554;7.844;2023-05-23T04:34:36;3.60;;;2.97;;
55417;SDS011;41287;47.554;7.844;2023-05-23T04:37:05;4.28;;;3.05;;
55417;SDS011;41287;47.554;7.844;2023-05-23T04:39:31;4.88;;;3.33;;
55417;SDS011;41287;47.554;7.844;2023-05-23T04:41:56;4.82;;;3.05;;
55417;SDS011;41287;47.554;7.844;2023-05-23T04:44:22;4.43;;;3.00;;
55417;SDS011;41287;47.554;7.844;2023-05-23T04:46:47;4.68;;;3.03;;
55417;SDS011;41287;47.554;7.844;2023-05-23T04:49:14;4.50;;;2.95;;
55417;SDS011;41287;47.554;7.844;2023-05-23T04:51:40;5.80;;;3.28;;
55417;SDS011;41287;47.554;7.844;2023-05-23T04:54:06;5.97;;;2.97;;
55417;SDS011;41287;47.554;7.844;2023-05-23T04:56:31;4.82;;;3.33;;
55417;SDS011;41287;47.554;7.844;2023-05-23T04:58:58;5.70;;;3.25;;
55417;SDS011;41287;47.554;7.844;2023-05-23T05:01:24;6.28;;;3.53;;
55417;SDS011;41287;47.554;7.844;2023-05-23T05:03:49;4.70;;;2.90;;
55417;SDS011;41287;47.554;7.844;2023-05-23T05:06:15;5.13;;;3.65;;
55417;SDS011;41287;47.554;7.844;2023-05-23T05:08:43;6.68;;;4.22;;
55417;SDS011;41287;47.554;7.844;2023-05-23T05:11:08;6.38;;;3.80;;
55417;SDS011;41287;47.554;7.844;2023-05-23T05:13:34;5.45;;;3.60;;
55417;SDS011;41287;47.554;7.844;2023-05-23T05:16:00;6.45;;;3.80;;
55417;SDS011;41287;47.554;7.844;2023-05-23T05:18:25;7.25;;;4.53;;
55417;SDS011;41287;47.554;7.844;2023-05-23T05:20:51;6.57;;;4.32;;
55417;SDS011;41287;47.554;7.844;2023-05-23T05:23:16;5.43;;;3.80;;
55417;SDS011;41287;47.554;7.844;2023-05-23T05:25:42;6.55;;;4.28;;
55417;SDS011;41287;47.554;7.844;2023-05-23T05:28:07;7.75;;;4.47;;
55417;SDS011;41287;47.554;7.844;2023-05-23T05:30:33;6.22;;;4.18;;
55417;SDS011;41287;47.554;7.844;2023-05-23T05:33:02;9.80;;;4.70;;
55417;SDS011;41287;47.554;7.844;2023-05-23T05:35:34;5.55;;;4.20;;
55417;SDS011;41287;47.554;7.844;2023-05-23T05:38:02;6.20;;;4.40;;
55417;SDS011;41287;47.554;7.844;2023-05-23T05:40:28;7.22;;;4.60;;
55417;SDS011;41287;47.554;7.844;2023-05-23T05:42:54;7.30;;;4.35;;
55417;SDS011;41287;47.554;7.844;2023-05-23T05:45:22;5.55;;;4.00;;
55417;SDS011;41287;47.554;7.844;2023-05-23T05:47:47;6.93;;;4.57;;
55417;SDS011;41287;47.554;7.844;2023-05-23T05:50:13;5.68;;;3.97;;
55417;SDS011;41287;47.554;7.844;2023-05-23T05:52:38;6.53;;;4.40;;
55417;SDS011;41287;47.554;7.844;2023-05-23T05:55:06;6.72;;;4.50;;
55417;SDS011;41287;47.554;7.844;2023-05-23T05:57:33;7.45;;;4.43;;
55417;SDS011;41287;47.554;7.844;2023-05-23T05:59:58;6.97;;;4.00;;
55417;SDS011;41287;47.554;7.844;2023-05-23T06:02:23;6.00;;;4.30;;
55417;SDS011;41287;47.554;7.844;2023-05-23T06:04:49;5.40;;;3.90;;
55417;SDS011;41287;47.554;7.844;2023-05-23T06:07:14;7.00;;;4.68;;
55417;SDS011;41287;47.554;7.844;2023-05-23T06:09:39;6.25;;;4.55;;
55417;SDS011;41287;47.554;7.844;2023-05-23T06:12:05;9.13;;;4.97;;
55417;SDS011;41287;47.554;7.844;2023-05-23T06:14:30;7.18;;;4.20;;
55417;SDS011;41287;47.554;7.844;2023-05-23T06:16:56;5.75;;;4.55;;
55417;SDS011;41287;47.554;7.844;2023-05-23T06:19:21;5.60;;;4.32;;
55417;SDS011;41287;47.554;7.844;2023-05-23T06:21:46;6.03;;;4.38;;
55417;SDS011;41287;47.554;7.844;2023-05-23T06:24:17;8.90;;;4.82;;
55417;SDS011;41287;47.554;7.844;2023-05-23T06:26:43;7.32;;;4.70;;
55417;SDS011;41287;47.554;7.844;2023-05-23T06:29:08;7.30;;;4.43;;
55417;SDS011;41287;47.554;7.844;2023-05-23T06:31:37;6.05;;;4.18;;
55417;SDS011;41287;47.554;7.844;2023-05-23T06:34:02;7.78;;;4.63;;
55417;SDS011;41287;47.554;7.844;2023-05-23T06:36:27;7.40;;;4.75;;
55417;SDS011;41287;47.554;7.844;2023-05-23T06:38:53;5.38;;;4.07;;
55417;SDS011;41287;47.554;7.844;2023-05-23T06:41:18;7.70;;;4.35;;
55417;SDS011;41287;47.554;7.844;2023-05-23T06:43:43;6.07;;;4.32;;
55417;SDS011;41287;47.554;7.844;2023-05-23T06:46:09;5.80;;;4.15;;
55417;SDS011;41287;47.554;7.844;2023-05-23T06:48:34;6.82;;;4.40;;
55417;SDS011;41287;47.554;7.844;2023-05-23T06:51:03;7.07;;;3.92;;
55417;SDS011;41287;47.554;7.844;2023-05-23T06:53:28;6.03;;;4.47;;
55417;SDS011;41287;47.554;7.844;2023-05-23T06:55:55;5.85;;;3.95;;
55417;SDS011;41287;47.554;7.844;2023-05-23T06:58:20;6.38;;;4.32;;
55417;SDS011;41287;47.554;7.844;2023-05-23T07:00:46;6.60;;;4.47;;
55417;SDS011;41287;47.554;7.844;2023-05-23T07:03:11;7.07;;;4.50;;
55417;SDS011;41287;47.554;7.844;2023-05-23T07:05:36;6.50;;;4.18;;
55417;SDS011;41287;47.554;7.844;2023-05-23T07:08:02;5.40;;;4.20;;
55417;SDS011;41287;47.554;7.844;2023-05-23T07:10:27;5.82;;;4.15;;
55417;SDS011;41287;47.554;7.844;2023-05-23T07:12:53;5.53;;;4.10;;
55417;SDS011;41287;47.554;7.844;2023-05-23T07:15:18;5.25;;;4.00;;
55417;SDS011;41287;47.554;7.844;2023-05-23T07:17:44;5.60;;;3.85;;
55417;SDS011;41287;47.554;7.844;2023-05-23T07:20:09;6.53;;;4.20;;
55417;SDS011;41287;47.554;7.844;2023-05-23T07:22:35;6.57;;;4.00;;
55417;SDS011;41287;47.554;7.844;2023-05-23T07:25:00;5.97;;;4.20;;
55417;SDS011;41287;47.554;7.844;2023-05-23T07:27:26;7.07;;;4.30;;
55417;SDS011;41287;47.554;7.844;2023-05-23T07:29:53;5.88;;;4.20;;
55417;SDS011;41287;47.554;7.844;2023-05-23T07:32:19;6.25;;;4.30;;
55417;SDS011;41287;47.554;7.844;2023-05-23T07:34:44;5.32;;;3.88;;
55417;SDS011;41287;47.554;7.844;2023-05-23T07:37:09;6.80;;;4.03;;
55417;SDS011;41287;47.554;7.844;2023-05-23T07:39:35;6.20;;;4.40;;
55417;SDS011;41287;47.554;7.844;2023-05-23T07:42:02;5.88;;;3.85;;
55417;SDS011;41287;47.554;7.844;2023-05-23T07:44:28;5.50;;;4.20;;
55417;SDS011;41287;47.554;7.844;2023-05-23T07:46:53;5.05;;;3.58;;
55417;SDS011;41287;47.554;7.844;2023-05-23T07:49:18;5.85;;;4.18;;
55417;SDS011;41287;47.554;7.844;2023-05-23T07:51:44;6.32;;;4.50;;
55417;SDS011;41287;47.554;7.844;2023-05-23T07:54:11;6.18;;;4.15;;
55417;SDS011;41287;47.554;7.844;2023-05-23T07:56:37;5.90;;;4.32;;
55417;SDS011;41287;47.554;7.844;2023-05-23T07:59:02;6.20;;;4.15;;
55417;SDS011;41287;47.554;7.844;2023-05-23T08:01:28;5.88;;;4.22;;
55417;SDS011;41287;47.554;7.844;2023-05-23T08:03:53;4.72;;;3.58;;
55417;SDS011;41287;47.554;7.844;2023-05-23T08:06:19;5.43;;;4.20;;
55417;SDS011;41287;47.554;7.844;2023-05-23T08:08:44;6.90;;;4.28;;
55417;SDS011;41287;47.554;7.844;2023-05-23T08:11:10;5.65;;;3.53;;
55417;SDS011;41287;47.554;7.844;2023-05-23T08:13:35;5.38;;;4.07;;
55417;SDS011;41287;47.554;7.844;2023-05-23T08:16:00;5.97;;;4.10;;
55417;SDS011;41287;47.554;7.844;2023-05-23T08:18:29;5.47;;;3.75;;
55417;SDS011;41287;47.554;7.844;2023-05-23T08:20:55;6.60;;;4.38;;
55417;SDS011;41287;47.554;7.844;2023-05-23T08:23:20;5.35;;;4.18;;
55417;SDS011;41287;47.554;7.844;2023-05-23T08:25:45;5.95;;;4.05;;
55417;SDS011;41287;47.554;7.844;2023-05-23T08:28:11;5.68;;;4.30;;
55417;SDS011;41287;47.554;7.844;2023-05-23T08:30:39;6.45;;;4.05;;
55417;SDS011;41287;47.554;7.844;2023-05-23T08:33:06;5.40;;;4.00;;
55417;SDS011;41287;47.554;7.844;2023-05-23T08:35:31;6.75;;;4.22;;
55417;SDS011;41287;47.554;7.844;2023-05-23T08:38:01;5.03;;;4.03;;
55417;SDS011;41287;47.554;7.844;2023-05-23T08:40:29;5.25;;;3.75;;
55417;SDS011;41287;47.554;7.844;2023-05-23T08:42:55;6.05;;;4.45;;
55417;SDS011;41287;47.554;7.844;2023-05-23T08:45:21;5.28;;;3.67;;
55417;SDS011;41287;47.554;7.844;2023-05-23T08:47:46;5.47;;;4.13;;
55417;SDS011;41287;47.554;7.844;2023-05-23T08:50:13;5.30;;;3.88;;
55417;SDS011;41287;47.554;7.844;2023-05-23T08:52:42;5.70;;;4.00;;
55417;SDS011;41287;47.554;7.844;2023-05-23T08:55:23;4.68;;;3.83;;
55417;SDS011;41287;47.554;7.844;2023-05-23T08:57:51;7.25;;;4.63;;
55417;SDS011;41287;47.554;7.844;2023-05-23T09:00:17;7.25;;;4.50;;
55417;SDS011;41287;47.554;7.844;2023-05-23T09:02:44;5.90;;;4.45;;
55417;SDS011;41287;47.554;7.844;2023-05-23T09:05:10;8.13;;;4.53;;
55417;SDS011;41287;47.554;7.844;2023-05-23T09:07:36;6.28;;;3.97;;
55417;SDS011;41287;47.554;7.844;2023-05-23T09:10:02;6.60;;;3.97;;
55417;SDS011;41287;47.554;7.844;2023-05-23T09:12:29;4.85;;;3.90;;
55417;SDS011;41287;47.554;7.844;2023-05-23T09:14:54;7.35;;;4.50;;
55417;SDS011;41287;47.554;7.844;2023-05-23T09:17:20;5.43;;;4.03;;
55417;SDS011;41287;47.554;7.844;2023-05-23T09:19:47;4.63;;;3.80;;
55417;SDS011;41287;47.554;7.844;2023-05-23T09:22:13;4.75;;;3.88;;
55417;SDS011;41287;47.554;7.844;2023-05-23T09:24:38;5.82;;;4.25;;
55417;SDS011;41287;47.554;7.844;2023-05-23T09:27:05;5.25;;;4.00;;
55417;SDS011;41287;47.554;7.844;2023-05-23T09:29:31;4.45;;;3.35;;
55417;SDS011;41287;47.554;7.844;2023-05-23T09:32:09;5.82;;;4.28;;
55417;SDS011;41287;47.554;7.844;2023-05-23T09:34:40;6.10;;;4.22;;
55417;SDS011;41287;47.554;7.844;2023-05-23T09:37:42;5.20;;;3.78;;
55417;SDS011;41287;47.554;7.844;2023-05-23T09:40:13;5.22;;;4.07;;
55417;SDS011;41287;47.554;7.844;2023-05-23T09:42:42;5.30;;;3.90;;
55417;SDS011;41287;47.554;7.844;2023-05-23T09:45:11;5.68;;;4.40;;
55417;SDS011;41287;47.554;7.844;2023-05-23T09:47:38;5.43;;;3.88;;
55417;SDS011;41287;47.554;7.844;2023-05-23T09:50:04;5.63;;;4.22;;
55417;SDS011;41287;47.554;7.844;2023-05-23T09:52:34;5.50;;;4.10;;
55417;SDS011;41287;47.554;7.844;2023-05-23T09:55:02;5.25;;;4.03;;
55417;SDS011;41287;47.554;7.844;2023-05-23T09:57:27;6.05;;;4.32;;
55417;SDS011;41287;47.554;7.844;2023-05-23T09:59:57;4.57;;;3.63;;
55417;SDS011;41287;47.554;7.844;2023-05-23T10:03:10;6.15;;;4.28;;
55417;SDS011;41287;47.554;7.844;2023-05-23T10:05:27;3.17;;;2.80;;
55417;SDS011;41287;47.554;7.844;2023-05-23T10:07:54;2.20;;;1.48;;
55417;SDS011;41287;47.554;7.844;2023-05-23T10:10:24;2.67;;;2.13;;
55417;SDS011;41287;47.554;7.844;2023-05-23T10:12:53;3.72;;;2.80;;
55417;SDS011;41287;47.554;7.844;2023-05-23T10:15:21;4.60;;;3.17;;
55417;SDS011;41287;47.554;7.844;2023-05-23T10:20:35;3.60;;;2.70;;
55417;SDS011;41287;47.554;7.844;2023-05-23T10:23:03;5.20;;;3.28;;
55417;SDS011;41287;47.554;7.844;2023-05-23T10:25:29;4.45;;;2.95;;
55417;SDS011;41287;47.554;7.844;2023-05-23T10:27:55;4.13;;;2.80;;
55417;SDS011;41287;47.554;7.844;2023-05-23T10:30:24;5.00;;;2.60;;
55417;SDS011;41287;47.554;7.844;2023-05-23T10:32:50;4.75;;;3.20;;
55417;SDS011;41287;47.554;7.844;2023-05-23T10:38:17;3.75;;;3.00;;
55417;SDS011;41287;47.554;7.844;2023-05-23T10:41:01;4.10;;;2.92;;
55417;SDS011;41287;47.554;7.844;2023-05-23T10:44:20;4.15;;;2.67;;
55417;SDS011;41287;47.554;7.844;2023-05-23T10:46:49;4.13;;;2.88;;
55417;SDS011;41287;47.554;7.844;2023-05-23T10:49:19;3.15;;;2.50;;
55417;SDS011;41287;47.554;7.844;2023-05-23T10:51:48;3.90;;;2.88;;
55417;SDS011;41287;47.554;7.844;2023-05-23T10:54:17;3.08;;;2.63;;
55417;SDS011;41287;47.554;7.844;2023-05-23T10:56:47;3.60;;;2.95;;
55417;SDS011;41287;47.554;7.844;2023-05-23T10:59:26;4.82;;;3.17;;
55417;SDS011;41287;47.554;7.844;2023-05-23T11:01:52;3.20;;;2.55;;
55417;SDS011;41287;47.554;7.844;2023-05-23T11:04:26;4.93;;;3.05;;
55417;SDS011;41287;47.554;7.844;2023-05-23T11:06:53;4.22;;;2.90;;
55417;SDS011;41287;47.554;7.844;2023-05-23T11:09:19;3.63;;;2.80;;
55417;SDS011;41287;47.554;7.844;2023-05-23T11:12:04;4.47;;;3.28;;
55417;SDS011;41287;47.554;7.844;2023-05-23T11:16:57;4.80;;;3.03;;
55417;SDS011;41287;47.554;7.844;2023-05-23T11:19:25;3.58;;;3.10;;
55417;SDS011;41287;47.554;7.844;2023-05-23T11:22:01;3.97;;;3.20;;
55417;SDS011;41287;47.554;7.844;2023-05-23T11:27:13;4.22;;;2.97;;
55417;SDS011;41287;47.554;7.844;2023-05-23T11:29:38;5.82;;;3.05;;
55417;SDS011;41287;47.554;7.844;2023-05-23T11:32:09;5.28;;;3.15;;
55417;SDS011;41287;47.554;7.844;2023-05-23T11:34:38;4.22;;;3.20;;
55417;SDS011;41287;47.554;7.844;2023-05-23T11:37:04;4.38;;;3.15;;
55417;SDS011;41287;47.554;7.844;2023-05-23T11:39:29;4.10;;;3.13;;
55417;SDS011;41287;47.554;7.844;2023-05-23T11:42:01;3.53;;;2.80;;
55417;SDS011;41287;47.554;7.844;2023-05-23T11:44:28;4.38;;;3.13;;
55417;SDS011;41287;47.554;7.844;2023-05-23T11:47:00;4.00;;;3.10;;
55417;SDS011;41287;47.554;7.844;2023-05-23T11:49:28;4.68;;;3.05;;
55417;SDS011;41287;47.554;7.844;2023-05-23T11:51:57;4.75;;;3.30;;
55417;SDS011;41287;47.554;7.844;2023-05-23T11:54:24;5.07;;;3.10;;
55417;SDS011;41287;47.554;7.844;2023-05-23T11:56:50;4.00;;;2.80;;
55417;SDS011;41287;47.554;7.844;2023-05-23T11:59:16;4.07;;;2.95;;
55417;SDS011;41287;47.554;7.844;2023-05-23T12:01:42;3.88;;;2.97;;
55417;SDS011;41287;47.554;7.844;2023-05-23T12:04:10;5.72;;;2.92;;
55417;SDS011;41287;47.554;7.844;2023-05-23T12:06:38;4.20;;;3.15;;
55417;SDS011;41287;47.554;7.844;2023-05-23T12:09:05;3.83;;;3.05;;
55417;SDS011;41287;47.554;7.844;2023-05-23T12:11:31;4.40;;;2.85;;
55417;SDS011;41287;47.554;7.844;2023-05-23T12:13:57;4.22;;;2.92;;
55417;SDS011;41287;47.554;7.844;2023-05-23T12:16:26;3.95;;;3.10;;
55417;SDS011;41287;47.554;7.844;2023-05-23T12:18:52;4.53;;;3.22;;
55417;SDS011;41287;47.554;7.844;2023-05-23T12:21:18;4.18;;;3.22;;
55417;SDS011;41287;47.554;7.844;2023-05-23T12:23:49;3.58;;;2.70;;
55417;SDS011;41287;47.554;7.844;2023-05-23T12:26:15;4.93;;;3.50;;
55417;SDS011;41287;47.554;7.844;2023-05-23T12:28:41;3.72;;;3.13;;
55417;SDS011;41287;47.554;7.844;2023-05-23T12:31:09;4.35;;;3.30;;
55417;SDS011;41287;47.554;7.844;2023-05-23T12:33:43;4.82;;;3.40;;
55417;SDS011;41287;47.554;7.844;2023-05-23T12:36:15;4.80;;;3.28;;
55417;SDS011;41287;47.554;7.844;2023-05-23T12:38:46;4.85;;;3.50;;
55417;SDS011;41287;47.554;7.844;2023-05-23T12:41:16;4.03;;;3.20;;
55417;SDS011;41287;47.554;7.844;2023-05-23T12:43:49;3.33;;;2.92;;
55417;SDS011;41287;47.554;7.844;2023-05-23T12:46:20;4.00;;;2.85;;
55417;SDS011;41287;47.554;7.844;2023-05-23T12:48:50;3.97;;;2.80;;
55417;SDS011;41287;47.554;7.844;2023-05-23T12:51:15;3.88;;;2.95;;
55417;SDS011;41287;47.554;7.844;2023-05-23T12:53:41;4.70;;;3.35;;
55417;SDS011;41287;47.554;7.844;2023-05-23T12:56:09;4.88;;;3.10;;
55417;SDS011;41287;47.554;7.844;2023-05-23T12:58:34;4.95;;;3.28;;
55417;SDS011;41287;47.554;7.844;2023-05-23T13:01:00;3.97;;;3.20;;
55417;SDS011;41287;47.554;7.844;2023-05-23T13:03:29;3.63;;;2.53;;
55417;SDS011;41287;47.554;7.844;2023-05-23T13:05:55;3.80;;;2.85;;
55417;SDS011;41287;47.554;7.844;2023-05-23T13:08:21;3.92;;;2.92;;
55417;SDS011;41287;47.554;7.844;2023-05-23T13:10:47;4.82;;;3.35;;
55417;SDS011;41287;47.554;7.844;2023-05-23T13:13:13;5.03;;;3.42;;
55417;SDS011;41287;47.554;7.844;2023-05-23T13:15:39;4.13;;;2.97;;
55417;SDS011;41287;47.554;7.844;2023-05-23T13:18:04;5.40;;;2.97;;
55417;SDS011;41287;47.554;7.844;2023-05-23T13:20:33;3.75;;;3.25;;
55417;SDS011;41287;47.554;7.844;2023-05-23T13:22:59;3.97;;;3.00;;
55417;SDS011;41287;47.554;7.844;2023-05-23T13:25:27;3.65;;;2.88;;
55417;SDS011;41287;47.554;7.844;2023-05-23T13:27:52;4.90;;;3.10;;
55417;SDS011;41287;47.554;7.844;2023-05-23T13:30:18;5.22;;;3.58;;
55417;SDS011;41287;47.554;7.844;2023-05-23T13:32:44;4.20;;;3.25;;
55417;SDS011;41287;47.554;7.844;2023-05-23T13:35:10;4.43;;;3.35;;
55417;SDS011;41287;47.554;7.844;2023-05-23T13:37:36;4.55;;;3.30;;
55417;SDS011;41287;47.554;7.844;2023-05-23T13:40:01;5.07;;;3.65;;
55417;SDS011;41287;47.554;7.844;2023-05-23T13:42:28;5.18;;;3.50;;
55417;SDS011;41287;47.554;7.844;2023-05-23T13:44:53;4.28;;;3.20;;
55417;SDS011;41287;47.554;7.844;2023-05-23T13:47:19;4.82;;;3.45;;
55417;SDS011;41287;47.554;7.844;2023-05-23T13:49:44;5.32;;;3.83;;
55417;SDS011;41287;47.554;7.844;2023-05-23T13:52:10;5.20;;;3.30;;
55417;SDS011;41287;47.554;7.844;2023-05-23T13:54:36;4.85;;;3.55;;
55417;SDS011;41287;47.554;7.844;2023-05-23T13:57:02;5.20;;;4.10;;
55417;SDS011;41287;47.554;7.844;2023-05-23T13:59:28;5.80;;;3.80;;
55417;SDS011;41287;47.554;7.844;2023-05-23T14:01:53;4.72;;;3.53;;
55417;SDS011;41287;47.554;7.844;2023-05-23T14:04:19;4.72;;;3.47;;
55417;SDS011;41287;47.554;7.844;2023-05-23T14:06:44;6.78;;;3.85;;
55417;SDS011;41287;47.554;7.844;2023-05-23T14:09:10;4.70;;;3.75;;
55417;SDS011;41287;47.554;7.844;2023-05-23T14:11:36;4.53;;;3.58;;
55417;SDS011;41287;47.554;7.844;2023-05-23T14:14:02;5.97;;;3.78;;
55417;SDS011;41287;47.554;7.844;2023-05-23T14:16:27;4.07;;;3.20;;
55417;SDS011;41287;47.554;7.844;2023-05-23T14:18:53;4.28;;;3.17;;
55417;SDS011;41287;47.554;7.844;2023-05-23T14:21:18;5.65;;;4.00;;
55417;SDS011;41287;47.554;7.844;2023-05-23T14:23:44;5.50;;;3.85;;
55417;SDS011;41287;47.554;7.844;2023-05-23T14:26:09;5.63;;;3.63;;
55417;SDS011;41287;47.554;7.844;2023-05-23T14:28:35;4.93;;;3.53;;
55417;SDS011;41287;47.554;7.844;2023-05-23T14:31:02;4.95;;;3.33;;
55417;SDS011;41287;47.554;7.844;2023-05-23T14:33:28;4.50;;;3.50;;
55417;SDS011;41287;47.554;7.844;2023-05-23T14:35:53;5.07;;;3.63;;
55417;SDS011;41287;47.554;7.844;2023-05-23T14:38:19;4.60;;;3.38;;
55417;SDS011;41287;47.554;7.844;2023-05-23T14:40:44;4.78;;;3.65;;
55417;SDS011;41287;47.554;7.844;2023-05-23T14:43:11;5.30;;;3.78;;
55417;SDS011;41287;47.554;7.844;2023-05-23T14:45:36;5.60;;;4.07;;
55417;SDS011;41287;47.554;7.844;2023-05-23T14:48:03;5.57;;;3.78;;
55417;SDS011;41287;47.554;7.844;2023-05-23T14:50:29;4.53;;;3.40;;
55417;SDS011;41287;47.554;7.844;2023-05-23T14:52:54;4.95;;;3.75;;
55417;SDS011;41287;47.554;7.844;2023-05-23T14:55:19;5.43;;;3.60;;
55417;SDS011;41287;47.554;7.844;2023-05-23T14:57:45;5.15;;;3.63;;
55417;SDS011;41287;47.554;7.844;2023-05-23T15:00:10;5.50;;;4.22;;
55417;SDS011;41287;47.554;7.844;2023-05-23T15:02:39;5.55;;;4.05;;
55417;SDS011;41287;47.554;7.844;2023-05-23T15:05:05;5.13;;;3.78;;